Time;durP1;ratioP1;P1;durP2;ratioP2;P2;SDS_P1;SDS_P2;PMS_P1;PMS_P2;Temp;Humidity;BMP_temperature;BMP_pressure;BME280_temperature;BME280_humidity;BME280_pressure;Samples;Min_cycle;Max_cycle;Signal;HPM_P1;HPM_P2
2022/10/15 00:04:04;;;;;;;2.50;2.30;;;;;;;-146.19;100.00;65364.44;10385436;28;20108;-62
2022/10/15 00:09:23;;;;;;;2.53;2.30;;;;;;;-146.19;100.00;65364.44;10385748;28;20045;-62
2022/10/15 00:14:43;;;;;;;2.55;2.33;;;;;;;-146.19;100.00;65364.44;10373032;28;20042;-63
2022/10/15 00:20:07;;;;;;;2.72;2.15;;;;;;;-146.19;100.00;65364.44;10395437;28;20046;-62
2022/10/15 00:25:27;;;;;;;3.28;2.40;;;;;;;-146.19;100.00;65364.44;10373657;28;20050;-63
2022/10/15 00:30:46;;;;;;;2.20;2.00;;;;;;;-146.19;100.00;65364.44;10385662;28;20042;-63
2022/10/15 00:36:11;;;;;;;2.30;2.10;;;;;;;-146.19;100.00;65364.44;10387948;28;20045;-62
2022/10/15 00:41:37;;;;;;;2.55;2.05;;;;;;;-146.19;100.00;65364.44;10370782;28;20053;-63
2022/10/15 00:47:24;;;;;;;2.60;2.40;;;;;;;-146.19;100.00;65364.44;10372845;28;20485;-62
2022/10/15 00:53:03;;;;;;;2.30;2.10;;;;;;;-146.19;100.00;65364.44;10388458;28;20043;-63
2022/10/15 00:58:27;;;;;;;2.20;2.10;;;;;;;-146.19;100.00;65364.44;10375313;28;20456;-62
2022/10/15 01:03:47;;;;;;;2.15;1.90;;;;;;;-146.19;100.00;65364.44;10371953;28;20486;-63
2022/10/15 01:09:07;;;;;;;2.35;2.00;;;;;;;-146.19;100.00;65364.44;10393216;28;20038;-63
2022/10/15 01:14:56;;;;;;;2.38;2.17;;;;;;;-146.19;100.00;65364.44;10364382;28;20042;-63
2022/10/15 01:20:32;;;;;;;2.00;1.83;;;;;;;-146.19;100.00;65364.44;10354970;28;20054;-63
2022/10/15 01:26:12;;;;;;;2.40;2.20;;;;;;;-146.19;100.00;65364.44;10364436;28;20397;-62
2022/10/15 01:31:56;;;;;;;2.28;2.08;;;;;;;-146.19;100.00;65364.44;10398861;28;20489;-62
2022/10/15 01:37:38;;;;;;;2.20;2.00;;;;;;;-146.19;100.00;65364.44;10377752;28;20041;-62
2022/10/15 01:43:01;;;;;;;2.00;1.80;;;;;;;-146.19;100.00;65364.44;10377010;28;20049;-63
2022/10/15 01:48:32;;;;;;;2.30;2.10;;;;;;;-146.19;100.00;65364.44;10375814;28;20050;-63
2022/10/15 01:53:52;;;;;;;2.35;2.08;;;;;;;-146.19;100.00;65364.44;10365672;28;20046;-62
2022/10/15 01:59:12;;;;;;;2.13;1.98;;;;;;;-146.19;100.00;65364.44;10351389;28;20058;-63
2022/10/15 02:04:31;;;;;;;1.80;1.70;;;;;;;-146.19;100.00;65364.44;10376798;28;20053;-63
2022/10/15 02:10:00;;;;;;;2.10;1.95;;;;;;;-146.19;100.00;65364.44;10377884;28;20042;-63
2022/10/15 02:15:27;;;;;;;2.05;1.83;;;;;;;-146.19;100.00;65364.44;10370694;28;20045;-63
2022/10/15 02:20:53;;;;;;;2.20;2.00;;;;;;;-146.19;100.00;65364.44;10359255;28;20057;-62
2022/10/15 02:26:13;;;;;;;1.95;1.75;;;;;;;-146.19;100.00;65364.44;10375419;28;20088;-63
2022/10/15 02:31:34;;;;;;;2.10;1.80;;;;;;;-146.19;100.00;65364.44;10393474;28;20046;-62
2022/10/15 02:36:56;;;;;;;1.67;1.58;;;;;;;-146.19;100.00;65364.44;10390013;28;20085;-62
2022/10/15 02:42:16;;;;;;;1.95;1.75;;;;;;;-146.19;100.00;65364.44;10374780;28;20049;-63
2022/10/15 02:47:36;;;;;;;2.20;2.00;;;;;;;-146.19;100.00;65364.44;10378783;28;20041;-63
2022/10/15 02:52:56;;;;;;;1.60;1.50;;;;;;;-146.19;100.00;65364.44;10374289;28;20048;-63
2022/10/15 02:58:15;;;;;;;1.95;1.70;;;;;;;-146.19;100.00;65364.44;10386298;28;20533;-62
2022/10/15 03:03:36;;;;;;;2.10;1.92;;;;;;;-146.19;100.00;65364.44;10367354;28;20042;-63
2022/10/15 03:08:56;;;;;;;1.95;1.73;;;;;;;-146.19;100.00;65364.44;10388564;28;20033;-63
2022/10/15 03:14:16;;;;;;;1.88;1.73;;;;;;;-146.19;100.00;65364.44;10362487;28;20057;-63
2022/10/15 03:19:36;;;;;;;2.03;1.83;;;;;;;-146.19;100.00;65364.44;10388051;28;20525;-62
2022/10/15 03:24:56;;;;;;;1.90;1.65;;;;;;;-146.19;100.00;65364.44;10372999;28;20041;-62
2022/10/15 03:30:18;;;;;;;2.00;1.80;;;;;;;-146.19;100.00;65364.44;10363773;28;20049;-62
2022/10/15 03:35:38;;;;;;;1.95;1.85;;;;;;;-146.19;100.00;65364.44;10387070;28;20044;-62
2022/10/15 03:40:58;;;;;;;2.05;1.70;;;;;;;-146.19;100.00;65364.44;10377362;28;20045;-62
2022/10/15 03:46:28;;;;;;;1.92;1.80;;;;;;;-146.19;100.00;65364.44;10391331;28;20053;-62
2022/10/15 03:51:48;;;;;;;1.55;1.45;;;;;;;-146.19;100.00;65364.44;10372904;28;20050;-62
2022/10/15 03:57:09;;;;;;;2.10;1.88;;;;;;;-146.19;100.00;65364.44;10376718;28;20477;-62
2022/10/15 04:02:37;;;;;;;1.70;1.60;;;;;;;-146.19;100.00;65364.44;10364761;28;20053;-61
2022/10/15 04:07:57;;;;;;;1.98;1.77;;;;;;;-146.19;100.00;65364.44;10381350;28;20100;-62
2022/10/15 04:13:18;;;;;;;1.70;1.60;;;;;;;-146.19;100.00;65364.44;10364221;28;20049;-62
2022/10/15 04:18:38;;;;;;;1.65;1.55;;;;;;;-146.19;100.00;65364.44;10385313;28;20037;-62
2022/10/15 04:23:58;;;;;;;1.58;1.48;;;;;;;-146.19;100.00;65364.44;10362252;28;20052;-62
2022/10/15 04:29:23;;;;;;;1.50;1.40;;;;;;;-146.19;100.00;65364.44;10374485;28;20041;-62
2022/10/15 04:34:45;;;;;;;1.60;1.50;;;;;;;-146.19;100.00;65364.44;10385906;28;20045;-63
2022/10/15 04:40:06;;;;;;;1.60;1.50;;;;;;;-146.19;100.00;65364.44;10370876;28;20104;-62
2022/10/15 04:45:26;;;;;;;1.27;1.17;;;;;;;-146.19;100.00;65364.44;10389779;28;20046;-63
2022/10/15 04:50:46;;;;;;;1.77;1.67;;;;;;;-146.19;100.00;65364.44;10370666;28;20041;-60
2022/10/15 04:56:14;;;;;;;1.50;1.40;;;;;;;-146.19;100.00;65364.44;10357662;28;20058;-61
2022/10/15 05:01:34;;;;;;;1.77;1.67;;;;;;;-146.19;100.00;65364.44;10360682;28;20088;-62
2022/10/15 05:07:00;;;;;;;1.67;1.58;;;;;;;-146.19;100.00;65364.44;10369200;28;20482;-63
2022/10/15 05:12:19;;;;;;;1.48;1.38;;;;;;;-146.19;100.00;65364.44;10361211;28;20069;-62
2022/10/15 05:17:38;;;;;;;1.50;1.40;;;;;;;-146.19;100.00;65364.44;10370213;28;20053;-62
2022/10/15 05:22:58;;;;;;;1.60;1.50;;;;;;;-146.19;100.00;65364.44;10370116;28;20053;-62
2022/10/15 05:28:22;;;;;;;1.52;1.42;;;;;;;-146.19;100.00;65364.44;10374403;28;20500;-62
2022/10/15 05:33:42;;;;;;;1.70;1.60;;;;;;;-146.19;100.00;65364.44;10370164;28;20145;-63
2022/10/15 05:39:03;;;;;;;1.63;1.52;;;;;;;-146.19;100.00;65364.44;10387016;28;20045;-62
2022/10/15 05:44:27;;;;;;;1.50;1.40;;;;;;;-146.19;100.00;65364.44;10390149;28;20445;-62
2022/10/15 05:49:46;;;;;;;1.50;1.40;;;;;;;-146.19;100.00;65364.44;10376900;28;20088;-63
2022/10/15 05:55:10;;;;;;;1.50;1.40;;;;;;;-146.19;100.00;65364.44;10379938;28;20042;-62
2022/10/15 06:00:31;;;;;;;1.70;1.60;;;;;;;-146.19;100.00;65364.44;10371958;28;20042;-63
2022/10/15 06:05:50;;;;;;;1.70;1.27;;;;;;;-146.19;100.00;65364.44;10391281;28;20096;-62
2022/10/15 06:11:10;;;;;;;1.45;1.35;;;;;;;-146.19;100.00;65364.44;10394376;28;20049;-62
2022/10/15 06:16:30;;;;;;;1.40;1.30;;;;;;;-146.19;100.00;65364.44;10378816;28;20052;-63
2022/10/15 06:21:49;;;;;;;1.38;1.25;;;;;;;-146.19;100.00;65364.44;10390610;28;20042;-62
2022/10/15 06:27:10;;;;;;;1.20;1.10;;;;;;;-146.19;100.00;65364.44;10394743;28;20452;-63
2022/10/15 06:32:30;;;;;;;1.40;1.30;;;;;;;-146.19;100.00;65364.44;10390032;28;20103;-63
2022/10/15 06:37:50;;;;;;;1.45;1.30;;;;;;;-146.19;100.00;65364.44;10389890;28;20486;-62
2022/10/15 06:43:10;;;;;;;1.30;1.20;;;;;;;-146.19;100.00;65364.44;10393842;28;20041;-63
2022/10/15 06:48:31;;;;;;;1.35;1.25;;;;;;;-146.19;100.00;65364.44;10389008;28;20117;-62
2022/10/15 06:53:51;;;;;;;1.30;1.20;;;;;;;-146.19;100.00;65364.44;10393008;28;20474;-62
2022/10/15 06:59:10;;;;;;;1.40;1.30;;;;;;;-146.19;100.00;65364.44;10371100;28;20058;-63
2022/10/15 07:04:29;;;;;;;1.40;1.30;;;;;;;-146.19;100.00;65364.44;10385342;28;20132;-63
2022/10/15 07:09:52;;;;;;;1.38;1.27;;;;;;;-146.19;100.00;65364.44;10379824;28;20046;-63
2022/10/15 07:15:11;;;;;;;1.42;1.33;;;;;;;-146.19;100.00;65364.44;10388409;28;20042;-63
2022/10/15 07:20:31;;;;;;;1.30;1.20;;;;;;;-146.19;100.00;65364.44;10375295;28;20054;-63
2022/10/15 07:25:51;;;;;;;1.30;1.20;;;;;;;-146.19;100.00;65364.44;10392101;28;20053;-63
2022/10/15 07:31:11;;;;;;;1.42;1.33;;;;;;;-146.19;100.00;65364.44;10376806;28;20045;-63
2022/10/15 07:36:30;;;;;;;1.30;1.20;;;;;;;-146.19;100.00;65364.44;10387514;28;20544;-63
2022/10/15 07:41:50;;;;;;;1.30;1.20;;;;;;;-146.19;100.00;65364.44;10370431;28;20049;-62
2022/10/15 07:47:09;;;;;;;1.15;1.10;;;;;;;-146.19;100.00;65364.44;10386698;28;20045;-63
2022/10/15 07:52:30;;;;;;;1.27;1.17;;;;;;;-146.19;100.00;65364.44;10386786;28;20392;-63
2022/10/15 07:57:49;;;;;;;1.13;1.02;;;;;;;-146.19;100.00;65364.44;10383596;28;20038;-62
2022/10/15 08:03:08;;;;;;;1.40;1.30;;;;;;;-146.19;100.00;65364.44;10386475;28;20413;-63
2022/10/15 08:08:28;;;;;;;1.20;1.10;;;;;;;-146.19;100.00;65364.44;10379637;28;20045;-62
2022/10/15 08:13:48;;;;;;;1.20;1.10;;;;;;;-146.19;100.00;65364.44;10386499;28;20037;-61
2022/10/15 08:19:07;;;;;;;1.15;1.10;;;;;;;-146.19;100.00;65364.44;10386333;28;20446;-63
2022/10/15 08:24:29;;;;;;;1.30;1.20;;;;;;;-146.19;100.00;65364.44;10391168;28;20453;-63
2022/10/15 08:29:48;;;;;;;1.35;1.25;;;;;;;-146.19;100.00;65364.44;10386358;28;20052;-62
2022/10/15 08:35:07;;;;;;;1.10;1.00;;;;;;;-146.19;100.00;65364.44;10385791;28;20648;-63
2022/10/15 08:40:28;;;;;;;1.40;1.30;;;;;;;-146.19;100.00;65364.44;10384027;28;20044;-63
2022/10/15 08:45:48;;;;;;;1.10;1.10;;;;;;;-146.19;100.00;65364.44;10360270;28;20042;-63
2022/10/15 08:51:19;;;;;;;1.20;1.10;;;;;;;-146.19;100.00;65364.44;10378806;28;20042;-62
2022/10/15 08:56:43;;;;;;;1.05;0.98;;;;;;;-146.19;100.00;65364.44;10357039;28;20046;-62
2022/10/15 09:02:22;;;;;;;1.10;1.05;;;;;;;-146.19;100.00;65364.44;10334767;28;20058;-63
2022/10/15 09:07:46;;;;;;;1.20;1.10;;;;;;;-146.19;100.00;65364.44;10361246;28;20054;-63
2022/10/15 09:13:17;;;;;;;1.17;1.10;;;;;;;-146.19;100.00;65364.44;10372453;28;20042;-62
2022/10/15 09:18:37;;;;;;;0.90;0.90;;;;;;;-146.19;100.00;65364.44;10378190;28;20481;-62
2022/10/15 09:24:09;;;;;;;1.15;1.05;;;;;;;-146.19;100.00;65364.44;10396765;28;20046;-63
2022/10/15 09:30:13;;;;;;;0.98;0.98;;;;;;;-146.19;100.00;65364.44;10377944;28;20049;-63
2022/10/15 09:36:05;;;;;;;1.17;1.08;;;;;;;-146.19;100.00;65364.44;10347723;28;20069;-62
2022/10/15 09:41:30;;;;;;;1.02;1.02;;;;;;;-146.19;100.00;65364.44;10392223;28;20065;-63
2022/10/15 09:46:50;;;;;;;1.27;1.10;;;;;;;-146.19;100.00;65364.44;10382677;28;20556;-62
2022/10/15 09:52:26;;;;;;;1.23;1.13;;;;;;;-146.19;100.00;65364.44;10387672;28;20041;-61
2022/10/15 09:57:48;;;;;;;0.90;0.90;;;;;;;-146.19;100.00;65364.44;10390100;28;20100;-62
2022/10/15 10:03:14;;;;;;;1.13;1.02;;;;;;;-146.19;100.00;65364.44;10368489;28;20429;-63
2022/10/15 10:08:47;;;;;;;1.33;1.23;;;;;;;-146.19;100.00;65364.44;10380659;28;20038;-62
2022/10/15 10:14:21;;;;;;;1.00;1.00;;;;;;;-146.19;100.00;65364.44;10390703;28;20432;-62
2022/10/15 10:19:42;;;;;;;1.13;1.02;;;;;;;-146.19;100.00;65364.44;10394944;28;20042;-62
2022/10/15 10:25:27;;;;;;;0.82;0.82;;;;;;;-146.19;100.00;65364.44;10390518;28;20107;-63
2022/10/15 10:30:56;;;;;;;0.90;0.90;;;;;;;-146.19;100.00;65364.44;10390482;28;20041;-62
2022/10/15 10:36:34;;;;;;;1.30;1.10;;;;;;;-146.19;100.00;65364.44;10375392;28;20053;-62
2022/10/15 10:41:54;;;;;;;;;;;;;;;-146.19;100.00;65364.44;10384200;28;20489;-63
2022/10/15 10:47:24;;;;;;;1.00;1.00;;;;;;;-146.19;100.00;65364.44;10367983;28;20331;-62
2022/10/15 10:52:46;;;;;;;0.70;0.70;;;;;;;-146.19;100.00;65364.44;10389186;28;20437;-63
2022/10/15 10:58:14;;;;;;;1.00;1.00;;;;;;;-146.19;100.00;65364.44;10386731;28;20054;-63
2022/10/15 11:03:36;;;;;;;1.20;1.10;;;;;;;-146.19;100.00;65364.44;10381042;28;20046;-62
2022/10/15 11:09:16;;;;;;;0.98;0.98;;;;;;;-146.19;100.00;65364.44;10388886;28;20500;-63
2022/10/15 11:15:02;;;;;;;0.93;0.90;;;;;;;-146.19;100.00;65364.44;10375731;28;20050;-59
2022/10/15 11:20:50;;;;;;;1.10;1.00;;;;;;;-146.19;100.00;65364.44;10389324;28;20088;-62
2022/10/15 11:26:22;;;;;;;1.00;1.00;;;;;;;-146.19;100.00;65364.44;10362456;28;20125;-61
2022/10/15 11:32:10;;;;;;;1.00;1.00;;;;;;;-146.19;100.00;65364.44;10392247;28;20048;-63
2022/10/15 11:37:55;;;;;;;0.80;0.80;;;;;;;-146.19;100.00;65364.44;10370075;28;20049;-63
2022/10/15 11:43:52;;;;;;;1.00;1.00;;;;;;;-146.19;100.00;65364.44;10387386;28;20382;-62
2022/10/15 11:49:11;;;;;;;0.75;0.75;;;;;;;-146.19;100.00;65364.44;10385007;28;20033;-63
2022/10/15 11:54:55;;;;;;;0.70;0.70;;;;;;;-146.19;100.00;65364.44;10386933;28;20096;-63
2022/10/15 12:00:39;;;;;;;0.90;0.90;;;;;;;-146.19;100.00;65364.44;10360863;28;20528;-63
2022/10/15 12:06:01;;;;;;;0.80;0.80;;;;;;;-146.19;100.00;65364.44;10370347;28;20049;-62
2022/10/15 12:11:30;;;;;;;1.05;1.00;;;;;;;-146.19;100.00;65364.44;10384866;28;20092;-62
2022/10/15 12:16:56;;;;;;;0.88;0.82;;;;;;;-146.19;100.00;65364.44;10379432;28;20559;-62
2022/10/15 12:22:39;;;;;;;0.73;0.73;;;;;;;-146.19;100.00;65364.44;10384795;28;20513;-63
2022/10/15 12:28:02;;;;;;;0.90;0.90;;;;;;;-146.19;100.00;65364.44;10384588;28;20517;-62
2022/10/15 12:33:23;;;;;;;1.00;1.00;;;;;;;-146.19;100.00;65364.44;10370559;28;20452;-62
2022/10/15 12:38:55;;;;;;;0.88;0.88;;;;;;;-146.19;100.00;65364.44;10384396;28;20046;-62
2022/10/15 12:44:29;;;;;;;1.00;1.00;;;;;;;-146.19;100.00;65364.44;10374433;28;20445;-63
2022/10/15 12:50:13;;;;;;;0.73;0.73;;;;;;;-146.19;100.00;65364.44;10373593;28;20398;-62
2022/10/15 12:55:35;;;;;;;0.88;0.88;;;;;;;-146.19;100.00;65364.44;10365258;28;20041;-62
2022/10/15 13:00:54;;;;;;;0.98;0.98;;;;;;;-146.19;100.00;65364.44;10363340;28;133806;-63
2022/10/15 13:06:14;;;;;;;0.70;0.70;;;;;;;-146.19;100.00;65364.44;10375976;28;20049;-62
2022/10/15 13:11:41;;;;;;;0.80;0.80;;;;;;;-146.19;100.00;65364.44;10392611;28;20038;-62
2022/10/15 13:17:04;;;;;;;0.90;0.90;;;;;;;-146.19;100.00;65364.44;10398179;28;20408;-62
2022/10/15 13:22:26;;;;;;;0.98;0.98;;;;;;;-146.19;100.00;65364.44;10377763;28;20042;-63
2022/10/15 13:27:45;;;;;;;1.10;1.00;;;;;;;-146.19;100.00;65364.44;10396322;28;20488;-62
2022/10/15 13:33:04;;;;;;;0.63;0.60;;;;;;;-146.19;100.00;65364.44;10381392;28;20038;-62
2022/10/15 13:38:25;;;;;;;0.80;0.80;;;;;;;-146.19;100.00;65364.44;10395006;28;20053;-63
2022/10/15 13:43:51;;;;;;;0.80;0.80;;;;;;;-146.19;100.00;65364.44;10384882;28;20639;-63
2022/10/15 13:49:11;;;;;;;0.80;0.80;;;;;;;-146.19;100.00;65364.44;10391239;28;20038;-63
2022/10/15 13:54:31;;;;;;;1.00;1.00;;;;;;;-146.19;100.00;65364.44;10390723;28;20053;-62
2022/10/15 13:59:52;;;;;;;0.70;0.70;;;;;;;-146.19;100.00;65364.44;10393049;28;20060;-62
2022/10/15 14:05:15;;;;;;;1.10;1.00;;;;;;;-146.19;100.00;65364.44;10390896;28;20061;-61
2022/10/15 14:10:35;;;;;;;0.80;0.75;;;;;;;-146.19;100.00;65364.44;10377415;28;20057;-63
2022/10/15 14:16:31;;;;;;;0.73;0.70;;;;;;;-146.19;100.00;65364.44;10394780;28;20037;-63
2022/10/15 14:21:51;;;;;;;0.75;0.75;;;;;;;-146.19;100.00;65364.44;10390208;28;20037;-63
2022/10/15 14:27:20;;;;;;;0.88;0.88;;;;;;;-146.19;100.00;65364.44;10383460;28;20046;-63
2022/10/15 14:32:52;;;;;;;0.82;0.80;;;;;;;-146.19;100.00;65364.44;10375017;28;20042;-63
2022/10/15 14:38:12;;;;;;;0.80;0.80;;;;;;;-146.19;100.00;65364.44;10389547;28;20410;-63
2022/10/15 14:43:33;;;;;;;0.70;0.70;;;;;;;-146.19;100.00;65364.44;10396947;28;20045;-63
2022/10/15 14:48:52;;;;;;;0.77;0.77;;;;;;;-146.19;100.00;65364.44;10389094;28;20049;-62
2022/10/15 14:54:28;;;;;;;0.70;0.70;;;;;;;-146.19;100.00;65364.44;10374278;28;20042;-62
2022/10/15 14:59:51;;;;;;;0.70;0.70;;;;;;;-146.19;100.00;65364.44;10387317;28;20058;-62
2022/10/15 15:05:10;;;;;;;0.70;0.70;;;;;;;-146.19;100.00;65364.44;10373780;28;20054;-62
2022/10/15 15:10:30;;;;;;;0.80;0.80;;;;;;;-146.19;100.00;65364.44;10363000;28;20061;-62
2022/10/15 15:15:49;;;;;;;0.75;0.75;;;;;;;-146.19;100.00;65364.44;10377311;28;20073;-63
2022/10/15 15:21:13;;;;;;;0.68;0.68;;;;;;;-146.19;100.00;65364.44;10386603;28;20041;-62
2022/10/15 15:26:32;;;;;;;0.80;0.80;;;;;;;-146.19;100.00;65364.44;10374961;28;20056;-62
2022/10/15 15:31:51;;;;;;;0.90;0.90;;;;;;;-146.19;100.00;65364.44;10387283;28;20042;-62
2022/10/15 15:37:19;;;;;;;0.90;0.90;;;;;;;-146.19;100.00;65364.44;10387261;28;20095;-63
2022/10/15 15:42:38;;;;;;;0.87;0.87;;;;;;;-146.19;100.00;65364.44;10389184;28;20050;-62
2022/10/15 15:48:02;;;;;;;0.77;0.77;;;;;;;-146.19;100.00;65364.44;10386984;28;20117;-63
2022/10/15 15:53:21;;;;;;;0.80;0.80;;;;;;;-146.19;100.00;65364.44;10386824;28;20489;-62
2022/10/15 15:58:41;;;;;;;0.70;0.70;;;;;;;-146.19;100.00;65364.44;10381508;28;20054;-62
2022/10/15 16:04:01;;;;;;;0.73;0.70;;;;;;;-146.19;100.00;65364.44;10386392;28;20041;-63
2022/10/15 16:09:23;;;;;;;0.80;0.80;;;;;;;-146.19;100.00;65364.44;10373069;28;20103;-62
2022/10/15 16:14:43;;;;;;;0.70;0.70;;;;;;;-146.19;100.00;65364.44;10381708;28;20050;-63
2022/10/15 16:20:04;;;;;;;0.70;0.70;;;;;;;-146.19;100.00;65364.44;10378067;28;20046;-63
2022/10/15 16:25:23;;;;;;;0.70;0.70;;;;;;;-146.19;100.00;65364.44;10376814;28;20053;-62
2022/10/15 16:30:42;;;;;;;0.77;0.77;;;;;;;-146.19;100.00;65364.44;10385562;28;20041;-62
2022/10/15 16:36:02;;;;;;;0.70;0.70;;;;;;;-146.19;100.00;65364.44;10385232;28;20061;-63
2022/10/15 16:41:21;;;;;;;0.77;0.70;;;;;;;-146.19;100.00;65364.44;10386232;28;20042;-62
2022/10/15 16:46:40;;;;;;;0.70;0.70;;;;;;;-146.19;100.00;65364.44;10385063;28;20064;-62
2022/10/15 16:52:00;;;;;;;0.90;0.90;;;;;;;-146.19;100.00;65364.44;10384978;28;20050;-62
2022/10/15 16:57:19;;;;;;;0.75;0.75;;;;;;;-146.19;100.00;65364.44;10378525;28;20088;-62
2022/10/15 17:02:38;;;;;;;0.80;0.80;;;;;;;-146.19;100.00;65364.44;10378497;28;20046;-62
2022/10/15 17:07:58;;;;;;;0.70;0.70;;;;;;;-146.19;100.00;65364.44;10390326;28;20485;-62
2022/10/15 17:13:17;;;;;;;0.70;0.70;;;;;;;-146.19;100.00;65364.44;10380494;28;20038;-62
2022/10/15 17:18:38;;;;;;;0.70;0.70;;;;;;;-146.19;100.00;65364.44;10379674;28;20042;-62
2022/10/15 17:23:59;;;;;;;0.75;0.75;;;;;;;-146.19;100.00;65364.44;10378416;28;20452;-63
2022/10/15 17:29:21;;;;;;;0.73;0.73;;;;;;;-146.19;100.00;65364.44;10371646;28;20064;-62
2022/10/15 17:34:41;;;;;;;0.80;0.80;;;;;;;-146.19;100.00;65364.44;10387361;28;20091;-63
2022/10/15 17:40:01;;;;;;;0.70;0.70;;;;;;;-146.19;100.00;65364.44;10404547;28;20038;-62
2022/10/15 17:45:22;;;;;;;0.80;0.80;;;;;;;-146.19;100.00;65364.44;10391623;28;20054;-62
2022/10/15 17:50:41;;;;;;;0.70;0.70;;;;;;;-146.19;100.00;65364.44;10391000;28;20409;-63
2022/10/15 17:56:12;;;;;;;0.60;0.60;;;;;;;-146.19;100.00;65364.44;10401826;28;20430;-63
2022/10/15 18:01:33;;;;;;;0.65;0.65;;;;;;;-146.19;100.00;65364.44;10379245;28;20046;-63
2022/10/15 18:06:52;;;;;;;0.77;0.77;;;;;;;-146.19;100.00;65364.44;10375892;28;20060;-62
2022/10/15 18:12:21;;;;;;;0.80;0.80;;;;;;;-146.19;100.00;65364.44;10379960;28;20437;-62
2022/10/15 18:17:40;;;;;;;0.80;0.80;;;;;;;-146.19;100.00;65364.44;10376664;28;20072;-62
2022/10/15 18:23:00;;;;;;;0.80;0.80;;;;;;;-146.19;100.00;65364.44;10391203;28;20048;-63
2022/10/15 18:28:21;;;;;;;0.90;0.90;;;;;;;-146.19;100.00;65364.44;10369893;28;20066;-63
2022/10/15 18:33:51;;;;;;;0.93;0.93;;;;;;;-146.19;100.00;65364.44;10389438;28;20091;-62
2022/10/15 18:39:10;;;;;;;0.70;0.70;;;;;;;-146.19;100.00;65364.44;10390723;28;20489;-63
2022/10/15 18:44:31;;;;;;;0.80;0.80;;;;;;;-146.19;100.00;65364.44;10375269;28;20061;-63
2022/10/15 18:49:51;;;;;;;0.82;0.82;;;;;;;-146.19;100.00;65364.44;10374972;28;20497;-63
2022/10/15 18:55:10;;;;;;;0.60;0.60;;;;;;;-146.19;100.00;65364.44;10390366;28;20920;-62
2022/10/15 19:00:35;;;;;;;0.80;0.80;;;;;;;-146.19;100.00;65364.44;10353413;28;20054;-63
2022/10/15 19:05:55;;;;;;;0.80;0.80;;;;;;;-146.19;100.00;65364.44;10375368;28;20050;-62
2022/10/15 19:11:15;;;;;;;0.60;0.60;;;;;;;-146.19;100.00;65364.44;10380384;28;20042;-59
2022/10/15 19:16:36;;;;;;;0.68;0.68;;;;;;;-146.19;100.00;65364.44;10373423;28;20042;-62
2022/10/15 19:21:59;;;;;;;0.73;0.73;;;;;;;-146.19;100.00;65364.44;10387586;28;20512;-63
2022/10/15 19:27:18;;;;;;;0.68;0.68;;;;;;;-146.19;100.00;65364.44;10375521;28;20040;-63
2022/10/15 19:32:37;;;;;;;0.70;0.70;;;;;;;-146.19;100.00;65364.44;10375451;28;20044;-61
2022/10/15 19:37:57;;;;;;;0.70;0.70;;;;;;;-146.19;100.00;65364.44;10377400;28;20536;-63
2022/10/15 19:43:17;;;;;;;0.70;0.70;;;;;;;-146.19;100.00;65364.44;10379411;28;20050;-62
2022/10/15 19:48:37;;;;;;;0.60;0.60;;;;;;;-146.19;100.00;65364.44;10386559;28;20156;-62
2022/10/15 19:53:58;;;;;;;0.70;0.70;;;;;;;-146.19;100.00;65364.44;10392020;28;20052;-63
2022/10/15 19:59:22;;;;;;;0.77;0.77;;;;;;;-146.19;100.00;65364.44;10375645;28;20054;-62
2022/10/15 20:04:41;;;;;;;0.60;0.60;;;;;;;-146.19;100.00;65364.44;10379379;28;20048;-62
2022/10/15 20:10:01;;;;;;;0.80;0.80;;;;;;;-146.19;100.00;65364.44;10379332;28;20045;-63
2022/10/15 20:15:21;;;;;;;0.77;0.77;;;;;;;-146.19;100.00;65364.44;10371845;28;20509;-62
2022/10/15 20:20:42;;;;;;;0.70;0.70;;;;;;;-146.19;100.00;65364.44;10388282;28;20046;-63
2022/10/15 20:26:07;;;;;;;0.70;0.70;;;;;;;-146.19;100.00;65364.44;10372340;28;20050;-63
2022/10/15 20:31:31;;;;;;;0.70;0.70;;;;;;;-146.19;100.00;65364.44;10378994;28;20045;-59
2022/10/15 20:36:51;;;;;;;0.68;0.68;;;;;;;-146.19;100.00;65364.44;10398256;28;20042;-63
2022/10/15 20:42:10;;;;;;;0.57;0.57;;;;;;;-146.19;100.00;65364.44;10385274;28;20056;-62
2022/10/15 20:47:31;;;;;;;0.60;0.60;;;;;;;-146.19;100.00;65364.44;10379281;28;20044;-62
2022/10/15 20:52:52;;;;;;;0.80;0.80;;;;;;;-146.19;100.00;65364.44;10387103;28;20046;-61
2022/10/15 20:58:12;;;;;;;0.70;0.70;;;;;;;-146.19;100.00;65364.44;10367862;28;20405;-62
2022/10/15 21:03:31;;;;;;;0.70;0.70;;;;;;;-146.19;100.00;65364.44;10384717;28;20490;-62
2022/10/15 21:08:51;;;;;;;0.77;0.77;;;;;;;-146.19;100.00;65364.44;10399227;28;20049;-63
2022/10/15 21:14:10;;;;;;;1.20;0.90;;;;;;;-146.19;100.00;65364.44;10392418;28;20038;-63
2022/10/15 21:19:30;;;;;;;0.77;0.77;;;;;;;-146.19;100.00;65364.44;10392650;28;20445;-63
2022/10/15 21:24:50;;;;;;;0.70;0.70;;;;;;;-146.19;100.00;65364.44;10393577;28;20065;-62
2022/10/15 21:30:09;;;;;;;0.80;0.80;;;;;;;-146.19;100.00;65364.44;10379075;28;20073;-62
2022/10/15 21:35:29;;;;;;;0.70;0.70;;;;;;;-146.19;100.00;65364.44;10395993;28;20399;-63
2022/10/15 21:40:50;;;;;;;0.60;0.60;;;;;;;-146.19;100.00;65364.44;10391543;28;20042;-63
2022/10/15 21:46:11;;;;;;;0.70;0.70;;;;;;;-146.19;100.00;65364.44;10391421;28;20482;-62
2022/10/15 21:51:32;;;;;;;0.80;0.80;;;;;;;-146.19;100.00;65364.44;10391993;28;20034;-63
2022/10/15 21:56:52;;;;;;;0.80;0.80;;;;;;;-146.19;100.00;65364.44;10384882;28;20133;-63
2022/10/15 22:02:11;;;;;;;0.63;0.63;;;;;;;-146.19;100.00;65364.44;10377256;28;20046;-61
2022/10/15 22:07:30;;;;;;;0.82;0.82;;;;;;;-146.19;100.00;65364.44;10392893;28;20406;-62
2022/10/15 22:12:51;;;;;;;0.63;0.63;;;;;;;-146.19;100.00;65364.44;10390183;28;20046;-62
2022/10/15 22:18:11;;;;;;;0.63;0.63;;;;;;;-146.19;100.00;65364.44;10396917;28;20052;-62
2022/10/15 22:23:30;;;;;;;0.63;0.63;;;;;;;-146.19;100.00;65364.44;10379090;28;20045;-63
2022/10/15 22:28:54;;;;;;;0.65;0.65;;;;;;;-146.19;100.00;65364.44;10376424;28;20041;-62
2022/10/15 22:34:14;;;;;;;0.65;0.65;;;;;;;-146.19;100.00;65364.44;10397106;28;20050;-62
2022/10/15 22:39:35;;;;;;;0.70;0.70;;;;;;;-146.19;100.00;65364.44;10376098;28;20042;-63
2022/10/15 22:44:54;;;;;;;0.60;0.60;;;;;;;-146.19;100.00;65364.44;10376465;28;20073;-62
2022/10/15 22:50:15;;;;;;;0.80;0.80;;;;;;;-146.19;100.00;65364.44;10394523;28;20049;-61
2022/10/15 22:55:34;;;;;;;0.70;0.70;;;;;;;-146.19;100.00;65364.44;10361274;28;20339;-63
2022/10/15 23:00:54;;;;;;;0.60;0.60;;;;;;;-146.19;100.00;65364.44;10366079;28;20076;-62
2022/10/15 23:06:15;;;;;;;0.70;0.70;;;;;;;-146.19;100.00;65364.44;10390843;28;20493;-62
2022/10/15 23:11:37;;;;;;;0.60;0.60;;;;;;;-146.19;100.00;65364.44;10373229;28;20049;-62
2022/10/15 23:16:56;;;;;;;0.60;0.60;;;;;;;-146.19;100.00;65364.44;10392257;28;20042;-62
2022/10/15 23:22:16;;;;;;;0.65;0.65;;;;;;;-146.19;100.00;65364.44;10387823;28;20042;-63
2022/10/15 23:27:35;;;;;;;0.57;0.57;;;;;;;-146.19;100.00;65364.44;10387695;28;20068;-62
2022/10/15 23:32:54;;;;;;;0.80;0.80;;;;;;;-146.19;100.00;65364.44;10389225;28;20065;-63
2022/10/15 23:38:13;;;;;;;0.60;0.60;;;;;;;-146.19;100.00;65364.44;10387076;28;20049;-62
2022/10/15 23:43:33;;;;;;;0.60;0.60;;;;;;;-146.19;100.00;65364.44;10387267;28;20056;-63
2022/10/15 23:48:52;;;;;;;0.60;0.60;;;;;;;-146.19;100.00;65364.44;10386594;28;20092;-62
2022/10/15 23:54:16;;;;;;;0.73;0.73;;;;;;;-146.19;100.00;65364.44;10386363;28;20042;-62
2022/10/15 23:59:36;;;;;;;0.70;0.70;;;;;;;-146.19;100.00;65364.44;10366083;28;20054;-63
